Time;durP1;ratioP1;P1;durP2;ratioP2;P2;SDS_P1;SDS_P2;PMS_P1;PMS_P2;Temp;Humidity;BMP_temperature;BMP_pressure;BME280_temperature;BME280_humidity;BME280_pressure;Samples;Min_cycle;Max_cycle;Signal;HPM_P1;HPM_P2
2023/01/21 00:02:55;;;;;;;29.50;14.10;;;0.40;99.00;;;;;;20465290;28;20031;-45
2023/01/21 00:12:56;;;;;;;23.92;11.48;;;0.30;98.70;;;;;;20468777;28;20047;-45
2023/01/21 00:22:58;;;;;;;21.88;12.55;;;0.30;98.30;;;;;;20470675;28;20102;-46
2023/01/21 00:32:59;;;;;;;27.83;13.23;;;0.40;98.60;;;;;;20466690;28;20058;-46
2023/01/21 00:43:00;;;;;;;25.40;12.15;;;0.30;98.50;;;;;;20469796;28;20031;-46
2023/01/21 00:53:00;;;;;;;17.45;10.52;;;0.40;98.50;;;;;;20468561;28;20035;-46
2023/01/21 01:03:02;;;;;;;21.33;11.45;;;0.30;98.30;;;;;;20473644;28;20039;-46
2023/01/21 01:13:02;;;;;;;23.90;10.95;;;0.20;97.10;;;;;;20460694;28;20105;-46
2023/01/21 01:23:04;;;;;;;20.75;11.77;;;0.20;97.10;;;;;;20465509;28;20043;-46
2023/01/21 01:33:05;;;;;;;20.77;11.30;;;0.20;96.90;;;;;;20464791;28;20043;-46
2023/01/21 01:43:22;;;;;;;20.83;10.35;;;0.20;96.50;;;;;;20462337;28;20038;-46
2023/01/21 01:53:23;;;;;;;;;;;0.00;96.20;;;;;;20464249;28;20905;-46
2023/01/21 02:03:44;;;;;;;21.50;9.88;;;0.00;95.80;;;;;;20459940;28;19961;-46
2023/01/21 02:13:52;;;;;;;23.58;11.70;;;0.00;96.00;;;;;;20457362;28;21865;-46
2023/01/21 02:24:33;;;;;;;18.50;10.73;;;0.10;96.50;;;;;;20462959;28;20541;-46
2023/01/21 02:34:55;;;;;;;23.88;10.45;;;0.00;96.50;;;;;;20437629;28;20574;-46
2023/01/21 02:45:18;;;;;;;23.88;9.82;;;0.00;96.00;;;;;;20464948;28;20863;-46
2023/01/21 02:55:22;;;;;;;17.98;10.23;;;-0.20;94.90;;;;;;20473204;28;20939;-46
2023/01/21 03:05:33;;;;;;;19.42;9.32;;;-0.20;95.10;;;;;;20470498;28;20121;-46
2023/01/21 03:25:59;;;;;;;18.05;8.93;;;-0.20;95.70;;;;;;20471189;28;20639;-46
2023/01/21 03:36:07;;;;;;;17.25;8.07;;;-0.40;95.50;;;;;;20472328;28;20133;-46
2023/01/21 03:46:26;;;;;;;23.98;11.05;;;-0.40;95.40;;;;;;20471724;28;20081;-46
2023/01/21 03:56:27;;;;;;;19.02;9.43;;;-0.40;95.80;;;;;;20467914;28;20833;-46
2023/01/21 04:06:32;;;;;;;22.60;10.85;;;-0.40;95.90;;;;;;20466581;28;20169;-46
2023/01/21 04:16:33;;;;;;;23.52;8.63;;;-0.50;95.80;;;;;;20472179;28;20544;-46
2023/01/21 04:26:33;;;;;;;24.40;11.20;;;-0.50;96.10;;;;;;20468078;28;20445;-46
2023/01/21 04:36:34;;;;;;;22.27;9.25;;;-0.60;96.30;;;;;;20465794;28;20574;-46
2023/01/21 04:46:36;;;;;;;16.38;9.52;;;-0.60;96.40;;;;;;20466321;28;20062;-46
2023/01/21 04:56:37;;;;;;;18.70;10.15;;;-0.50;96.60;;;;;;20463193;28;20038;-46
2023/01/21 05:06:38;;;;;;;17.48;10.13;;;-0.60;96.60;;;;;;20462809;28;20475;-46
2023/01/21 05:16:39;;;;;;;24.85;9.98;;;-0.50;96.60;;;;;;20466333;28;20513;-46
2023/01/21 05:26:40;;;;;;;16.42;10.18;;;-0.50;96.20;;;;;;20464424;28;20490;-46
2023/01/21 05:36:41;;;;;;;11.13;7.68;;;-0.60;96.00;;;;;;20470111;28;20039;-46
2023/01/21 05:46:42;;;;;;;18.08;9.45;;;-0.60;95.90;;;;;;20453018;28;20062;-45
2023/01/21 05:56:43;;;;;;;17.42;9.10;;;-0.70;95.70;;;;;;20468991;28;20110;-46
2023/01/21 06:06:44;;;;;;;20.58;10.50;;;-0.70;95.80;;;;;;20456447;28;20845;-46
2023/01/21 06:16:45;;;;;;;23.20;12.27;;;-0.80;95.50;;;;;;20468155;28;20164;-46
2023/01/21 06:26:46;;;;;;;16.75;10.45;;;-0.80;95.30;;;;;;20476100;28;20051;-46
2023/01/21 06:36:47;;;;;;;20.23;10.57;;;-0.80;95.40;;;;;;20471420;28;20404;-46
2023/01/21 06:46:48;;;;;;;20.92;10.48;;;-0.80;95.40;;;;;;20479055;28;20696;-45
2023/01/21 06:56:49;;;;;;;21.05;11.85;;;-0.80;95.10;;;;;;20485151;28;20110;-45
2023/01/21 07:06:50;;;;;;;25.52;11.98;;;-0.90;95.10;;;;;;20469442;28;20310;-45
2023/01/21 07:16:52;;;;;;;14.70;8.95;;;-0.80;95.20;;;;;;20461363;28;20822;-45
2023/01/21 07:26:55;;;;;;;24.63;11.75;;;-0.70;93.60;;;;;;20466540;28;20083;-46
2023/01/21 07:36:56;;;;;;;20.33;12.10;;;-0.80;92.30;;;;;;20457392;28;20070;-45
2023/01/21 07:46:57;;;;;;;15.73;8.45;;;-0.90;92.90;;;;;;20469428;28;20043;-45
2023/01/21 07:56:58;;;;;;;25.77;11.73;;;-0.80;93.20;;;;;;20471336;28;20050;-45
2023/01/21 08:07:00;;;;;;;17.40;11.05;;;-0.70;93.60;;;;;;20471034;28;20105;-45
2023/01/21 08:17:01;;;;;;;26.30;11.23;;;-0.80;93.00;;;;;;20469854;28;20509;-45
2023/01/21 08:27:02;;;;;;;22.85;12.02;;;-0.80;93.30;;;;;;20461444;28;22014;-45
2023/01/21 08:37:03;;;;;;;20.75;10.50;;;-0.90;94.00;;;;;;20471095;28;20521;-45
2023/01/21 08:47:04;;;;;;;40.03;15.18;;;-0.80;95.90;;;;;;20472865;28;20046;-45
2023/01/21 08:57:05;;;;;;;25.00;12.18;;;-0.80;96.20;;;;;;20469797;28;20111;-45
2023/01/21 09:07:06;;;;;;;26.92;14.23;;;-0.80;96.80;;;;;;20414691;28;20126;-45
2023/01/21 09:17:09;;;;;;;27.83;12.82;;;-0.70;97.00;;;;;;20454997;28;20047;-45
2023/01/21 09:27:10;;;;;;;26.10;13.32;;;-0.60;97.60;;;;;;20458133;28;20118;-45
2023/01/21 09:37:11;;;;;;;21.10;12.35;;;-0.60;98.40;;;;;;20461928;28;20575;-45
2023/01/21 09:47:34;;;;;;;23.65;11.73;;;-0.40;98.90;;;;;;20456240;28;20491;-44
2023/01/21 09:57:50;;;;;;;42.00;15.88;;;-0.30;99.10;;;;;;20459424;28;20969;-44
2023/01/21 10:08:23;;;;;;;31.93;13.83;;;-0.30;98.60;;;;;;20440757;28;21856;-45
2023/01/21 10:18:29;;;;;;;30.85;13.13;;;-0.30;98.50;;;;;;20453522;28;20707;-44
2023/01/21 10:28:31;;;;;;;24.92;12.75;;;-0.30;98.70;;;;;;20455037;28;20075;-45
2023/01/21 10:38:52;;;;;;;27.75;13.85;;;-0.10;99.70;;;;;;20457690;28;20138;-44
2023/01/21 10:49:24;;;;;;;26.08;12.82;;;-0.10;99.90;;;;;;20453636;28;20035;-44
2023/01/21 10:59:30;;;;;;;27.38;10.95;;;0.20;99.90;;;;;;20453289;28;21669;-44
2023/01/21 11:09:34;;;;;;;29.93;11.77;;;0.20;98.90;;;;;;20415727;28;20103;-44
2023/01/21 11:19:35;;;;;;;22.02;13.75;;;0.30;99.20;;;;;;20377581;28;20495;-44
2023/01/21 11:29:40;;;;;;;25.85;12.85;;;0.30;99.00;;;;;;20391002;28;20440;-44
2023/01/21 11:39:50;;;;;;;20.05;11.40;;;0.50;99.00;;;;;;20409669;28;20046;-44
2023/01/21 11:49:51;;;;;;;22.13;13.43;;;0.50;97.50;;;;;;20473183;28;20439;-44
2023/01/21 11:59:59;;;;;;;20.58;11.18;;;0.50;96.40;;;;;;20480883;28;20242;-44
2023/01/21 12:10:02;;;;;;;19.55;9.88;;;0.50;95.30;;;;;;20462156;28;21515;-44
2023/01/21 12:20:23;;;;;;;17.92;9.00;;;0.40;95.40;;;;;;20461687;28;20066;-44
2023/01/21 12:30:35;;;;;;;28.30;12.65;;;0.60;96.90;;;;;;20455183;28;20873;-44
2023/01/21 12:40:48;;;;;;;19.75;10.07;;;0.60;96.10;;;;;;20465909;28;20081;-44
2023/01/21 12:51:01;;;;;;;19.48;9.98;;;0.60;95.90;;;;;;20468584;28;20229;-44
2023/01/21 13:01:08;;;;;;;18.20;9.75;;;0.60;96.20;;;;;;20475247;28;20466;-44
2023/01/21 13:11:28;;;;;;;20.25;10.43;;;0.70;96.20;;;;;;20479028;28;20431;-45
2023/01/21 13:21:45;;;;;;;24.08;10.77;;;0.70;97.00;;;;;;20476173;28;22419;-45
2023/01/21 13:32:10;;;;;;;22.45;9.60;;;0.70;97.00;;;;;;20450330;28;20757;-44
2023/01/21 13:42:19;;;;;;;22.40;10.15;;;0.80;97.10;;;;;;20470099;28;20101;-45
2023/01/21 13:52:54;;;;;;;21.27;11.90;;;0.90;97.20;;;;;;20460985;28;20945;-45
2023/01/21 14:03:20;;;;;;;27.83;11.23;;;1.00;97.40;;;;;;20470022;28;20388;-45
2023/01/21 14:13:58;;;;;;;13.07;8.20;;;0.80;96.80;;;;;;20459101;28;21119;-45
2023/01/21 14:24:30;;;;;;;22.98;8.60;;;0.80;96.70;;;;;;20463296;28;21211;-44
2023/01/21 14:35:01;;;;;;;19.35;10.70;;;0.90;96.40;;;;;;20454231;28;21801;-44
2023/01/21 14:45:04;;;;;;;21.50;11.45;;;0.80;96.40;;;;;;20474109;28;20702;-44
2023/01/21 14:55:23;;;;;;;19.45;11.52;;;0.70;96.70;;;;;;20473530;28;21475;-44
2023/01/21 15:05:27;;;;;;;25.38;10.30;;;0.70;96.60;;;;;;20473049;28;21059;-44
2023/01/21 15:15:39;;;;;;;17.35;9.23;;;0.70;97.00;;;;;;20476730;28;20362;-44
2023/01/21 15:26:01;;;;;;;18.08;9.38;;;0.70;97.10;;;;;;20465537;28;20050;-44
2023/01/21 15:36:04;;;;;;;30.38;13.18;;;0.70;97.10;;;;;;20475584;28;21958;-44
2023/01/21 15:46:10;;;;;;;16.65;9.73;;;0.70;97.80;;;;;;20452150;28;20081;-44
2023/01/21 15:56:39;;;;;;;17.73;9.73;;;0.80;97.60;;;;;;20470456;28;20038;-44
2023/01/21 16:06:52;;;;;;;18.42;8.95;;;0.80;98.20;;;;;;20460053;28;21636;-44
2023/01/21 16:17:16;;;;;;;16.02;7.40;;;0.70;97.80;;;;;;20468307;28;20901;-44
2023/01/21 16:27:29;;;;;;;13.35;7.72;;;0.70;97.70;;;;;;20459847;28;20733;-44
2023/01/21 16:37:31;;;;;;;17.67;9.75;;;0.70;98.60;;;;;;20467944;28;20102;-44
2023/01/21 16:47:35;;;;;;;15.95;9.68;;;0.70;97.80;;;;;;20461244;28;20047;-44
2023/01/21 16:57:36;;;;;;;15.32;8.70;;;0.80;98.50;;;;;;20472416;28;20039;-44
2023/01/21 17:07:50;;;;;;;13.60;7.32;;;0.70;98.60;;;;;;20479064;28;20043;-44
2023/01/21 17:17:55;;;;;;;16.35;8.63;;;0.70;98.80;;;;;;20463919;28;20311;-47
2023/01/21 17:27:56;;;;;;;16.15;7.88;;;0.80;98.90;;;;;;20463255;28;20114;-45
2023/01/21 17:37:59;;;;;;;15.75;10.50;;;0.80;98.90;;;;;;20456474;28;20054;-45
2023/01/21 17:48:01;;;;;;;21.35;11.48;;;0.70;99.40;;;;;;20471991;28;20063;-45
2023/01/21 17:58:24;;;;;;;16.17;8.55;;;0.80;99.60;;;;;;20464508;28;20043;-45
2023/01/21 18:08:25;;;;;;;15.80;7.80;;;0.80;99.90;;;;;;20468520;28;20926;-46
2023/01/21 18:18:28;;;;;;;11.48;5.50;;;0.80;99.70;;;;;;20481817;28;20327;-45
2023/01/21 18:28:32;;;;;;;12.82;6.78;;;0.80;98.80;;;;;;20479281;28;20216;-46
2023/01/21 18:38:34;;;;;;;15.65;7.30;;;0.60;98.30;;;;;;20473606;28;20039;-45
2023/01/21 18:48:35;;;;;;;15.88;7.82;;;0.60;98.80;;;;;;20475476;28;20069;-46
2023/01/21 18:58:36;;;;;;;14.57;6.88;;;0.60;99.30;;;;;;20476249;28;20097;-46
2023/01/21 19:08:37;;;;;;;11.85;6.45;;;0.60;99.90;;;;;;20469590;28;20042;-46
2023/01/21 19:18:38;;;;;;;18.90;8.77;;;0.70;99.90;;;;;;20475677;28;20031;-46
2023/01/21 19:28:39;;;;;;;20.58;9.70;;;0.70;99.90;;;;;;20475582;28;20059;-46
2023/01/21 19:38:41;;;;;;;22.40;10.50;;;0.70;99.90;;;;;;20479670;28;20043;-46
2023/01/21 19:48:42;;;;;;;17.02;10.88;;;0.60;99.90;;;;;;20473247;28;20362;-46
2023/01/21 19:58:43;;;;;;;26.65;10.95;;;0.60;99.90;;;;;;20489731;28;20035;-46
2023/01/21 20:08:45;;;;;;;22.70;10.70;;;0.60;99.90;;;;;;20484272;28;20707;-46
2023/01/21 20:18:47;;;;;;;22.58;10.07;;;0.60;99.90;;;;;;20474837;28;20491;-46
2023/01/21 20:28:50;;;;;;;22.77;11.65;;;0.60;99.90;;;;;;20489250;28;20047;-46
2023/01/21 20:38:52;;;;;;;17.05;11.63;;;0.60;99.90;;;;;;20477893;28;20511;-46
2023/01/21 20:48:55;;;;;;;27.23;12.73;;;0.60;99.90;;;;;;20467305;28;20743;-46
2023/01/21 20:58:56;;;;;;;15.35;10.00;;;0.60;99.90;;;;;;20466176;28;20296;-46
2023/01/21 21:08:57;;;;;;;16.55;9.80;;;0.60;99.90;;;;;;20472976;28;20066;-46
2023/01/21 21:18:59;;;;;;;16.90;7.70;;;0.70;99.90;;;;;;20475614;28;20117;-46
2023/01/21 21:29:00;;;;;;;12.55;5.80;;;0.60;99.90;;;;;;20460798;28;20050;-46
2023/01/21 21:39:01;;;;;;;17.75;6.45;;;0.50;99.90;;;;;;20469086;28;20031;-46
2023/01/21 21:49:02;;;;;;;13.07;7.10;;;0.30;99.90;;;;;;20466476;28;20502;-47
2023/01/21 21:59:04;;;;;;;10.98;5.85;;;0.20;99.90;;;;;;20467320;28;20588;-47
2023/01/21 22:09:06;;;;;;;12.65;5.25;;;0.30;99.90;;;;;;20484033;28;20113;-47
2023/01/21 22:19:07;;;;;;;12.55;7.63;;;0.10;99.90;;;;;;20470879;28;20404;-47
2023/01/21 22:29:08;;;;;;;10.88;6.72;;;0.00;99.90;;;;;;20473591;28;20427;-47
2023/01/21 22:39:10;;;;;;;14.43;8.75;;;-0.20;99.90;;;;;;20473059;28;20055;-47
2023/01/21 22:49:11;;;;;;;14.63;6.30;;;-0.30;99.90;;;;;;20457029;28;20047;-47
2023/01/21 22:59:13;;;;;;;15.93;5.85;;;-0.40;99.90;;;;;;20483455;28;20479;-47
2023/01/21 23:09:14;;;;;;;12.98;7.57;;;-0.50;99.90;;;;;;20480919;28;20043;-47
2023/01/21 23:19:15;;;;;;;11.75;6.43;;;-0.60;99.90;;;;;;20491499;28;20909;-47
2023/01/21 23:29:16;;;;;;;14.45;6.70;;;-0.70;99.90;;;;;;20496594;28;20072;-47
2023/01/21 23:39:17;;;;;;;12.18;6.72;;;-0.80;99.90;;;;;;20480063;28;20058;-47
2023/01/21 23:49:18;;;;;;;17.17;7.38;;;-0.70;99.90;;;;;;20477814;28;20082;-47
2023/01/21 23:59:20;;;;;;;13.75;7.13;;;-0.70;99.90;;;;;;20486637;28;20043;-46
